Time;durP1;ratioP1;P1;durP2;ratioP2;P2;SDS_P1;SDS_P2;PMS_P1;PMS_P2;Temp;Humidity;BMP_temperature;BMP_pressure;BME280_temperature;BME280_humidity;BME280_pressure;Samples;Min_cycle;Max_cycle;Signal;HPM_P1;HPM_P2
2021/12/20 00:01:02;;;;;;;;;;;23.90;52.10;;;;;;1583554;74;696;-66
2021/12/20 00:03:04;;;;;;;;;;;24.00;52.10;;;;;;1576290;74;1933;-67
2021/12/20 00:05:06;;;;;;;;;;;23.90;52.10;;;;;;1576149;74;769;-65
2021/12/20 00:07:08;;;;;;;;;;;23.90;52.10;;;;;;1587667;74;1119;-67
2021/12/20 00:09:10;;;;;;;;;;;23.90;52.20;;;;;;1573915;74;887;-68
2021/12/20 00:11:12;;;;;;;;;;;23.90;52.20;;;;;;1570022;75;774;-68
2021/12/20 00:13:13;;;;;;;;;;;24.00;52.20;;;;;;1563455;74;780;-70
2021/12/20 00:15:17;;;;;;;;;;;23.90;52.10;;;;;;1564828;74;1047;-66
2021/12/20 00:17:19;;;;;;;;;;;24.00;52.20;;;;;;1581731;74;1255;-66
2021/12/20 00:19:23;;;;;;;;;;;23.90;52.20;;;;;;1566922;74;706;-66
2021/12/20 00:21:24;;;;;;;;;;;23.90;52.20;;;;;;1575526;74;1980;-67
2021/12/20 00:23:26;;;;;;;;;;;24.00;52.20;;;;;;1589855;74;1931;-69
2021/12/20 00:25:28;;;;;;;;;;;24.00;52.20;;;;;;1563957;74;1176;-67
2021/12/20 00:27:30;;;;;;;;;;;24.00;52.30;;;;;;1589639;74;684;-68
2021/12/20 00:29:32;;;;;;;;;;;24.00;52.30;;;;;;1569462;75;771;-67
2021/12/20 00:31:34;;;;;;;;;;;24.00;52.40;;;;;;1569162;74;658;-67
2021/12/20 00:33:35;;;;;;;;;;;24.00;52.50;;;;;;1584740;74;725;-65
2021/12/20 00:35:37;;;;;;;;;;;24.00;52.50;;;;;;1572700;75;1166;-66
2021/12/20 00:42:19;;;;;;;;;;;24.00;52.50;;;;;;1570758;75;1899;-67
2021/12/20 00:44:21;;;;;;;;;;;24.00;52.60;;;;;;1576132;74;719;-67
2021/12/20 00:46:23;;;;;;;;;;;24.00;52.60;;;;;;1575676;74;1192;-67
2021/12/20 00:48:24;;;;;;;;;;;24.00;52.60;;;;;;1579678;74;692;-68
2021/12/20 00:50:26;;;;;;;;;;;24.00;52.50;;;;;;1572757;74;713;-68
2021/12/20 00:52:28;;;;;;;;;;;24.00;52.50;;;;;;1579050;74;715;-68
2021/12/20 00:54:30;;;;;;;;;;;24.00;52.50;;;;;;1565447;74;779;-68
2021/12/20 00:56:32;;;;;;;;;;;24.00;52.40;;;;;;1585571;74;1148;-68
2021/12/20 00:58:34;;;;;;;;;;;24.00;52.40;;;;;;1581426;74;705;-67
2021/12/20 01:00:39;;;;;;;;;;;24.10;52.60;;;;;;1576514;74;642;-67
2021/12/20 01:02:41;;;;;;;;;;;24.00;52.40;;;;;;1565656;74;1934;-67
2021/12/20 01:04:43;;;;;;;;;;;24.00;52.40;;;;;;1581192;74;767;-68
2021/12/20 01:06:45;;;;;;;;;;;24.00;52.40;;;;;;1575523;74;1114;-67
2021/12/20 01:08:49;;;;;;;;;;;24.00;52.30;;;;;;1579949;74;1123;-69
2021/12/20 01:10:53;;;;;;;;;;;24.00;52.40;;;;;;1601758;74;778;-66
2021/12/20 01:12:55;;;;;;;;;;;24.00;52.30;;;;;;1579203;74;1440;-66
2021/12/20 01:15:01;;;;;;;;;;;24.00;52.40;;;;;;1576598;74;803;-68
2021/12/20 01:17:05;;;;;;;;;;;24.00;52.40;;;;;;1601379;72;2074;-66
2021/12/20 01:19:07;;;;;;;;;;;24.00;52.40;;;;;;1607343;72;1565;-63
2021/12/20 01:21:08;;;;;;;;;;;24.00;52.50;;;;;;1604212;73;787;-64
2021/12/20 01:23:11;;;;;;;;;;;24.00;52.50;;;;;;1619958;72;1941;-65
2021/12/20 01:25:13;;;;;;;;;;;24.00;52.50;;;;;;1623480;72;680;-62
2021/12/20 01:27:15;;;;;;;;;;;24.00;52.50;;;;;;1614106;71;1196;-65
2021/12/20 01:29:16;;;;;;;;;;;24.00;52.60;;;;;;1615314;73;676;-65
2021/12/20 01:31:18;;;;;;;;;;;24.00;52.60;;;;;;1626544;72;818;-66
2021/12/20 01:33:20;;;;;;;;;;;24.00;52.60;;;;;;1617042;72;796;-66
2021/12/20 01:35:23;;;;;;;;;;;24.00;52.60;;;;;;1616208;72;788;-64
2021/12/20 01:37:25;;;;;;;;;;;24.00;52.70;;;;;;1609382;71;1159;-66
2021/12/20 01:39:27;;;;;;;;;;;24.00;52.70;;;;;;1610164;72;732;-67
2021/12/20 01:41:28;;;;;;;;;;;24.00;52.70;;;;;;1624711;72;808;-66
2021/12/20 01:43:30;;;;;;;;;;;24.00;52.70;;;;;;1629855;72;1932;-65
2021/12/20 01:45:32;;;;;;;;;;;24.00;52.70;;;;;;1610496;73;707;-65
2021/12/20 01:47:37;;;;;;;;;;;24.00;52.60;;;;;;1619803;71;1115;-67
2021/12/20 01:49:50;;;;;;;;;;;24.00;52.70;;;;;;1616085;72;1703;-64
2021/12/20 01:51:51;;;;;;;;;;;24.00;52.70;;;;;;1588563;73;1649;-63
2021/12/20 01:53:48;;;;;;;;;;;24.00;52.70;;;;;;1600524;72;1763;-64
2021/12/20 01:55:50;;;;;;;;;;;24.00;52.70;;;;;;1617756;71;1207;-64
2021/12/20 01:57:52;;;;;;;;;;;24.00;52.90;;;;;;1626709;72;955;-65
2021/12/20 01:59:54;;;;;;;;;;;24.00;52.90;;;;;;1608008;73;800;-64
2021/12/20 02:01:56;;;;;;;;;;;24.00;52.90;;;;;;1621818;72;781;-65
2021/12/20 02:04:01;;;;;;;;;;;24.00;52.90;;;;;;1618878;72;1924;-63
2021/12/20 02:06:05;;;;;;;;;;;24.00;52.90;;;;;;1606611;71;1701;-64
2021/12/20 02:08:29;;;;;;;;;;;24.00;52.90;;;;;;1611645;73;1119;-65
2021/12/20 02:10:09;;;;;;;;;;;24.00;52.80;;;;;;1606763;72;1417;-64
2021/12/20 02:12:11;;;;;;;;;;;24.00;52.90;;;;;;1611598;72;683;-65
2021/12/20 02:14:13;;;;;;;;;;;24.00;52.80;;;;;;1612704;72;790;-66
2021/12/20 02:16:15;;;;;;;;;;;24.00;52.80;;;;;;1613109;73;1144;-64
2021/12/20 02:18:16;;;;;;;;;;;24.00;52.80;;;;;;1602975;72;773;-63
2021/12/20 02:20:25;;;;;;;;;;;24.00;52.80;;;;;;1619903;72;794;-64
2021/12/20 02:22:27;;;;;;;;;;;23.90;52.70;;;;;;1627767;72;1924;-65
2021/12/20 02:24:29;;;;;;;;;;;24.00;52.70;;;;;;1610949;73;721;-64
2021/12/20 02:26:31;;;;;;;;;;;24.00;52.70;;;;;;1603753;72;1172;-64
2021/12/20 02:28:41;;;;;;;;;;;24.00;52.70;;;;;;1619520;72;794;-64
2021/12/20 02:30:51;;;;;;;;;;;24.00;52.70;;;;;;1622309;72;1622;-64
2021/12/20 02:37:29;;;;;;;;;;;23.90;52.80;;;;;;1614272;72;1641;-64
2021/12/20 02:39:31;;;;;;;;;;;23.90;52.70;;;;;;1626891;72;729;-64
2021/12/20 02:41:33;;;;;;;;;;;24.00;52.80;;;;;;1619958;72;674;-65
2021/12/20 02:43:39;;;;;;;;;;;23.90;52.70;;;;;;1598564;72;1921;-63
2021/12/20 02:45:40;;;;;;;;;;;24.00;52.60;;;;;;1601377;73;1699;-64
2021/12/20 02:47:43;;;;;;;;;;;23.90;52.70;;;;;;1588368;72;1075;-64
2021/12/20 02:49:45;;;;;;;;;;;23.90;52.60;;;;;;1615653;72;702;-63
2021/12/20 02:51:48;;;;;;;;;;;24.00;52.60;;;;;;1626156;72;791;-64
2021/12/20 02:53:51;;;;;;;;;;;23.90;52.70;;;;;;1625899;72;752;-63
2021/12/20 02:55:53;;;;;;;;;;;23.90;52.60;;;;;;1590419;72;1192;-63
2021/12/20 02:57:55;;;;;;;;;;;23.90;52.60;;;;;;1601343;73;705;-63
2021/12/20 02:59:57;;;;;;;;;;;23.90;52.60;;;;;;1607249;72;676;-62
2021/12/20 03:02:00;;;;;;;;;;;23.90;52.60;;;;;;1627430;72;910;-62
2021/12/20 03:04:02;;;;;;;;;;;23.90;52.50;;;;;;1608602;72;1922;-60
2021/12/20 03:06:14;;;;;;;;;;;23.90;52.60;;;;;;1614864;72;1168;-61
2021/12/20 03:08:16;;;;;;;;;;;23.90;52.60;;;;;;1613082;73;1702;-62
2021/12/20 03:10:19;;;;;;;;;;;23.90;52.50;;;;;;1603761;72;783;-63
2021/12/20 03:12:23;;;;;;;;;;;23.90;52.60;;;;;;1610904;73;787;-66
2021/12/20 03:14:28;;;;;;;;;;;23.90;52.60;;;;;;1633931;72;1668;-62
2021/12/20 03:16:28;;;;;;;;;;;23.90;52.60;;;;;;1617161;71;1616;-63
2021/12/20 03:18:29;;;;;;;;;;;23.90;52.60;;;;;;1629775;72;782;-64
2021/12/20 03:20:31;;;;;;;;;;;23.90;52.60;;;;;;1632350;72;775;-63
2021/12/20 03:22:33;;;;;;;;;;;23.90;52.50;;;;;;1641813;72;754;-64
2021/12/20 03:24:35;;;;;;;;;;;23.90;52.50;;;;;;1637062;72;1978;-65
2021/12/20 03:26:37;;;;;;;;;;;23.90;52.50;;;;;;1621503;72;1143;-64
2021/12/20 03:28:39;;;;;;;;;;;23.90;52.50;;;;;;1632659;72;805;-64
2021/12/20 03:30:41;;;;;;;;;;;24.00;52.40;;;;;;1616470;72;791;-63
2021/12/20 03:32:43;;;;;;;;;;;24.00;52.40;;;;;;1629098;72;775;-63
2021/12/20 03:34:44;;;;;;;;;;;24.00;52.40;;;;;;1634161;72;810;-64
2021/12/20 03:36:46;;;;;;;;;;;24.00;52.30;;;;;;1623298;71;1138;-63
2021/12/20 03:38:48;;;;;;;;;;;24.00;52.20;;;;;;1623256;72;747;-64
2021/12/20 03:40:50;;;;;;;;;;;24.00;52.20;;;;;;1631508;72;723;-64
2021/12/20 03:42:52;;;;;;;;;;;24.10;52.20;;;;;;1627422;72;1926;-66
2021/12/20 03:44:54;;;;;;;;;;;24.10;52.20;;;;;;1630767;72;815;-65
2021/12/20 03:46:56;;;;;;;;;;;24.10;52.20;;;;;;1623709;72;1179;-64
2021/12/20 03:48:58;;;;;;;;;;;24.10;52.20;;;;;;1635371;72;792;-65
2021/12/20 03:51:03;;;;;;;;;;;24.10;52.10;;;;;;1631009;72;783;-65
2021/12/20 03:53:05;;;;;;;;;;;24.10;52.10;;;;;;1624679;71;769;-67
2021/12/20 03:55:07;;;;;;;;;;;24.00;52.10;;;;;;1616117;72;786;-70
2021/12/20 03:57:09;;;;;;;;;;;24.20;52.00;;;;;;1624158;72;1182;-70
2021/12/20 03:59:11;;;;;;;;;;;24.20;52.00;;;;;;1621001;72;807;-67
2021/12/20 04:01:13;;;;;;;;;;;24.20;51.90;;;;;;1615479;72;690;-67
2021/12/20 04:03:15;;;;;;;;;;;24.20;51.80;;;;;;1610249;72;1924;-67
2021/12/20 04:05:16;;;;;;;;;;;24.20;51.80;;;;;;1623479;72;761;-68
2021/12/20 04:07:18;;;;;;;;;;;24.20;51.70;;;;;;1632326;71;1139;-67
2021/12/20 04:09:20;;;;;;;;;;;24.20;51.60;;;;;;1630358;72;714;-69
2021/12/20 04:11:22;;;;;;;;;;;24.30;51.80;;;;;;1625000;72;684;-68
2021/12/20 04:13:25;;;;;;;;;;;24.20;51.50;;;;;;1621318;72;756;-68
2021/12/20 04:15:26;;;;;;;;;;;24.20;51.50;;;;;;1614216;72;780;-68
2021/12/20 04:17:28;;;;;;;;;;;24.20;51.40;;;;;;1623459;72;1158;-68
2021/12/20 04:19:30;;;;;;;;;;;24.30;51.40;;;;;;1623267;72;820;-67
2021/12/20 04:21:32;;;;;;;;;;;24.30;51.30;;;;;;1619139;72;875;-67
2021/12/20 04:23:34;;;;;;;;;;;24.20;51.20;;;;;;1614165;72;1938;-68
2021/12/20 04:25:36;;;;;;;;;;;24.30;51.30;;;;;;1610888;72;680;-69
2021/12/20 04:27:38;;;;;;;;;;;24.20;51.20;;;;;;1617913;72;1073;-69
2021/12/20 04:29:39;;;;;;;;;;;24.30;51.40;;;;;;1624913;72;733;-67
2021/12/20 04:31:42;;;;;;;;;;;24.20;51.30;;;;;;1621060;72;787;-69
2021/12/20 04:33:43;;;;;;;;;;;24.20;51.30;;;;;;1619149;72;729;-69
2021/12/20 04:35:45;;;;;;;;;;;24.20;51.30;;;;;;1613330;72;736;-69
2021/12/20 04:37:49;;;;;;;;;;;24.20;51.30;;;;;;1615814;72;814;-68
2021/12/20 04:39:51;;;;;;;;;;;24.20;51.30;;;;;;1622689;72;810;-69
2021/12/20 04:41:53;;;;;;;;;;;24.20;51.30;;;;;;1614967;72;744;-69
2021/12/20 04:43:54;;;;;;;;;;;24.10;51.30;;;;;;1618586;72;1932;-69
2021/12/20 04:45:56;;;;;;;;;;;24.20;51.50;;;;;;1625624;71;1191;-69
2021/12/20 04:47:58;;;;;;;;;;;24.10;51.30;;;;;;1622556;72;810;-70
2021/12/20 04:50:00;;;;;;;;;;;24.20;51.40;;;;;;1618458;72;750;-69
2021/12/20 04:52:02;;;;;;;;;;;24.10;51.30;;;;;;1617198;72;774;-68
2021/12/20 04:54:04;;;;;;;;;;;24.20;51.20;;;;;;1619740;72;822;-70
2021/12/20 04:56:06;;;;;;;;;;;24.30;51.00;;;;;;1626045;71;1133;-68
2021/12/20 04:58:08;;;;;;;;;;;24.30;51.10;;;;;;1629887;72;790;-68
2021/12/20 05:00:11;;;;;;;;;;;24.30;50.90;;;;;;1630371;72;770;-68
2021/12/20 05:02:13;;;;;;;;;;;24.30;50.80;;;;;;1630342;72;770;-68
2021/12/20 05:04:15;;;;;;;;;;;24.30;50.90;;;;;;1627306;72;1925;-69
2021/12/20 05:06:17;;;;;;;;;;;24.30;50.70;;;;;;1613994;72;1130;-68
2021/12/20 05:08:19;;;;;;;;;;;24.40;50.60;;;;;;1625103;72;785;-68
2021/12/20 05:10:34;;;;;;;;;;;24.30;50.70;;;;;;1621722;72;677;-68
2021/12/20 05:12:31;;;;;;;;;;;24.40;50.70;;;;;;1623551;72;1586;-68
2021/12/20 05:14:33;;;;;;;;;;;24.40;50.60;;;;;;1639051;72;763;-67
2021/12/20 05:16:35;;;;;;;;;;;24.40;50.50;;;;;;1631058;72;1115;-69
2021/12/20 05:18:36;;;;;;;;;;;24.50;50.40;;;;;;1637377;72;780;-70
2021/12/20 05:20:38;;;;;;;;;;;24.50;50.50;;;;;;1623591;72;698;-67
2021/12/20 05:22:40;;;;;;;;;;;24.40;50.40;;;;;;1641412;72;823;-69
2021/12/20 05:24:42;;;;;;;;;;;24.40;50.40;;;;;;1636057;72;1921;-65
2021/12/20 05:26:44;;;;;;;;;;;24.40;50.50;;;;;;1619557;72;1178;-64
2021/12/20 05:28:46;;;;;;;;;;;24.40;50.50;;;;;;1633090;72;731;-64
2021/12/20 05:30:50;;;;;;;;;;;24.50;50.50;;;;;;1632876;72;737;-63
2021/12/20 05:32:51;;;;;;;;;;;24.50;50.70;;;;;;1631340;72;1741;-64
2021/12/20 05:34:53;;;;;;;;;;;24.40;50.50;;;;;;1619419;72;823;-64
2021/12/20 05:36:55;;;;;;;;;;;24.50;50.50;;;;;;1628826;71;1091;-64
2021/12/20 05:38:57;;;;;;;;;;;24.50;50.40;;;;;;1632210;72;668;-64
2021/12/20 05:40:59;;;;;;;;;;;24.50;50.30;;;;;;1637216;72;771;-64
2021/12/20 05:43:00;;;;;;;;;;;24.50;50.20;;;;;;1637106;72;785;-64
2021/12/20 05:45:03;;;;;;;;;;;24.60;50.20;;;;;;1635786;72;1930;-65
2021/12/20 05:47:05;;;;;;;;;;;24.50;50.30;;;;;;1630504;72;1258;-66
2021/12/20 05:49:07;;;;;;;;;;;24.50;50.30;;;;;;1617966;72;682;-65
2021/12/20 05:51:09;;;;;;;;;;;24.50;50.20;;;;;;1627844;72;725;-65
2021/12/20 05:53:10;;;;;;;;;;;24.50;50.20;;;;;;1624251;72;856;-65
2021/12/20 05:55:13;;;;;;;;;;;24.60;50.20;;;;;;1629302;72;803;-64
2021/12/20 05:57:15;;;;;;;;;;;24.50;50.30;;;;;;1617465;71;1135;-65
2021/12/20 05:59:17;;;;;;;;;;;24.60;50.40;;;;;;1618043;72;722;-64
2021/12/20 06:01:18;;;;;;;;;;;24.50;50.40;;;;;;1627084;72;745;-65
2021/12/20 06:03:20;;;;;;;;;;;24.50;50.40;;;;;;1636179;72;706;-67
2021/12/20 06:05:22;;;;;;;;;;;24.50;50.30;;;;;;1622930;72;1928;-66
2021/12/20 06:07:25;;;;;;;;;;;24.40;50.30;;;;;;1611224;72;1135;-65
2021/12/20 06:09:27;;;;;;;;;;;24.40;50.40;;;;;;1611120;72;721;-65
2021/12/20 06:11:29;;;;;;;;;;;24.40;50.50;;;;;;1608973;72;723;-64
2021/12/20 06:13:30;;;;;;;;;;;24.40;50.50;;;;;;1606482;72;767;-65
2021/12/20 06:15:32;;;;;;;;;;;24.40;50.50;;;;;;1615358;72;712;-67
2021/12/20 06:17:35;;;;;;;;;;;24.30;50.50;;;;;;1628378;72;1177;-67
2021/12/20 06:19:37;;;;;;;;;;;24.30;50.80;;;;;;1626436;72;810;-65
2021/12/20 06:21:39;;;;;;;;;;;24.20;50.90;;;;;;1631998;72;760;-68
2021/12/20 06:23:41;;;;;;;;;;;24.30;51.10;;;;;;1611744;73;778;-62
2021/12/20 06:25:43;;;;;;;;;;;24.20;51.10;;;;;;1622895;72;1935;-64
2021/12/20 06:27:47;;;;;;;;;;;24.20;51.20;;;;;;1637226;72;1137;-65
2021/12/20 06:29:48;;;;;;;;;;;24.20;51.00;;;;;;1613997;72;1500;-65
2021/12/20 06:31:50;;;;;;;;;;;24.20;50.90;;;;;;1636445;72;781;-65
2021/12/20 06:33:52;;;;;;;;;;;24.30;51.10;;;;;;1635806;72;740;-63
2021/12/20 06:35:54;;;;;;;;;;;24.20;51.00;;;;;;1621079;72;1150;-61
2021/12/20 06:38:00;;;;;;;;;;;24.20;51.00;;;;;;1636974;72;762;-70
2021/12/20 06:40:03;;;;;;;;;;;24.20;51.00;;;;;;1610172;72;851;-68
2021/12/20 06:42:05;;;;;;;;;;;24.10;51.00;;;;;;1636134;72;699;-64
2021/12/20 06:44:07;;;;;;;;;;;24.20;51.30;;;;;;1626149;72;1924;-65
2021/12/20 06:46:09;;;;;;;;;;;24.20;51.10;;;;;;1637062;71;1129;-64
2021/12/20 06:48:11;;;;;;;;;;;24.20;51.10;;;;;;1634030;72;767;-64
2021/12/20 06:50:13;;;;;;;;;;;24.20;51.10;;;;;;1630141;72;787;-65
2021/12/20 06:52:14;;;;;;;;;;;24.20;51.10;;;;;;1630927;72;724;-65
2021/12/20 06:54:18;;;;;;;;;;;24.20;51.20;;;;;;1637340;72;673;-65
2021/12/20 06:56:20;;;;;;;;;;;24.10;51.20;;;;;;1613928;72;1118;-63
2021/12/20 06:58:23;;;;;;;;;;;24.10;51.10;;;;;;1628781;72;724;-64
2021/12/20 07:00:26;;;;;;;;;;;24.10;51.10;;;;;;1635628;72;721;-65
2021/12/20 07:02:28;;;;;;;;;;;24.00;51.00;;;;;;1615009;72;698;-64
2021/12/20 07:04:30;;;;;;;;;;;24.00;51.00;;;;;;1629582;72;1914;-64
2021/12/20 07:06:32;;;;;;;;;;;24.10;51.10;;;;;;1618068;72;1160;-65
2021/12/20 07:08:34;;;;;;;;;;;24.10;51.00;;;;;;1626269;72;762;-66
2021/12/20 07:10:36;;;;;;;;;;;24.00;50.90;;;;;;1641913;72;688;-65
2021/12/20 07:12:38;;;;;;;;;;;24.00;50.80;;;;;;1637180;72;696;-64
2021/12/20 07:14:40;;;;;;;;;;;24.10;51.00;;;;;;1626703;72;800;-63
2021/12/20 07:16:42;;;;;;;;;;;24.00;50.80;;;;;;1619755;71;1152;-64
2021/12/20 07:18:44;;;;;;;;;;;24.00;50.80;;;;;;1630547;72;680;-65
2021/12/20 07:20:46;;;;;;;;;;;24.00;50.80;;;;;;1636717;72;802;-65
2021/12/20 07:22:48;;;;;;;;;;;24.00;50.60;;;;;;1623605;72;780;-65
2021/12/20 07:24:50;;;;;;;;;;;24.00;50.70;;;;;;1628757;72;1936;-64
2021/12/20 07:26:52;;;;;;;;;;;24.00;50.80;;;;;;1628254;71;1166;-64
2021/12/20 07:28:53;;;;;;;;;;;24.00;50.70;;;;;;1627786;71;784;-62
2021/12/20 07:30:55;;;;;;;;;;;23.90;50.70;;;;;;1611810;72;766;-65
2021/12/20 07:32:58;;;;;;;;;;;24.00;50.70;;;;;;1628987;72;824;-65
2021/12/20 07:35:00;;;;;;;;;;;24.00;50.60;;;;;;1630354;72;618;-63
2021/12/20 07:37:02;;;;;;;;;;;24.00;50.50;;;;;;1632588;71;1136;-64
2021/12/20 07:39:04;;;;;;;;;;;24.00;50.50;;;;;;1618898;72;756;-65
2021/12/20 07:41:06;;;;;;;;;;;24.00;50.50;;;;;;1620426;72;742;-63
2021/12/20 07:43:08;;;;;;;;;;;24.00;50.50;;;;;;1628522;72;762;-64
2021/12/20 07:45:10;;;;;;;;;;;23.90;50.50;;;;;;1631254;72;1935;-65
2021/12/20 07:47:12;;;;;;;;;;;24.00;50.40;;;;;;1634136;72;1134;-66
2021/12/20 07:49:13;;;;;;;;;;;24.00;50.40;;;;;;1637161;71;772;-65
2021/12/20 07:51:15;;;;;;;;;;;24.00;50.30;;;;;;1625332;72;734;-63
2021/12/20 07:53:17;;;;;;;;;;;24.00;50.30;;;;;;1626524;72;796;-64
2021/12/20 07:55:19;;;;;;;;;;;24.00;50.30;;;;;;1630274;72;737;-64
2021/12/20 07:57:21;;;;;;;;;;;23.90;50.30;;;;;;1632697;72;1138;-64
2021/12/20 07:59:23;;;;;;;;;;;24.00;50.30;;;;;;1631782;72;788;-64
2021/12/20 08:01:26;;;;;;;;;;;23.90;50.30;;;;;;1631144;72;662;-66
2021/12/20 08:03:29;;;;;;;;;;;23.90;50.30;;;;;;1609211;72;744;-65
2021/12/20 08:05:32;;;;;;;;;;;23.90;50.40;;;;;;1621333;72;1897;-66
2021/12/20 08:07:34;;;;;;;;;;;23.90;50.30;;;;;;1623105;71;1110;-64
2021/12/20 08:09:36;;;;;;;;;;;23.90;50.30;;;;;;1620619;72;724;-63
2021/12/20 08:11:38;;;;;;;;;;;23.90;50.30;;;;;;1616442;72;889;-66
2021/12/20 08:13:44;;;;;;;;;;;23.90;50.30;;;;;;1622465;72;758;-64
2021/12/20 08:15:44;;;;;;;;;;;23.90;50.30;;;;;;1621762;72;2092;-64
2021/12/20 08:17:45;;;;;;;;;;;23.90;50.30;;;;;;1620907;72;1156;-65
2021/12/20 08:19:47;;;;;;;;;;;23.90;50.30;;;;;;1622994;72;719;-64
2021/12/20 08:21:49;;;;;;;;;;;23.90;50.30;;;;;;1622766;72;714;-64
2021/12/20 08:23:51;;;;;;;;;;;23.90;50.20;;;;;;1612124;72;798;-65
2021/12/20 08:25:53;;;;;;;;;;;23.90;50.30;;;;;;1615217;72;1924;-62
2021/12/20 08:27:55;;;;;;;;;;;23.90;50.30;;;;;;1630458;72;787;-65
2021/12/20 08:29:57;;;;;;;;;;;23.90;50.40;;;;;;1617527;72;673;-64
2021/12/20 08:32:02;;;;;;;;;;;23.90;50.40;;;;;;1625838;72;717;-64
2021/12/20 08:34:04;;;;;;;;;;;23.90;50.50;;;;;;1620985;72;707;-67
2021/12/20 08:36:10;;;;;;;;;;;23.90;50.50;;;;;;1624664;71;1127;-64
2021/12/20 08:38:11;;;;;;;;;;;23.80;50.50;;;;;;1627646;72;751;-63
2021/12/20 08:40:14;;;;;;;;;;;23.90;50.70;;;;;;1622403;72;784;-64
2021/12/20 08:42:16;;;;;;;;;;;23.90;50.80;;;;;;1616262;72;684;-63
2021/12/20 08:44:18;;;;;;;;;;;23.90;50.80;;;;;;1627754;72;1044;-64
2021/12/20 08:46:19;;;;;;;;;;;23.90;50.80;;;;;;1610526;72;1949;-64
2021/12/20 08:48:21;;;;;;;;;;;23.90;50.70;;;;;;1623338;72;778;-64
2021/12/20 08:50:23;;;;;;;;;;;23.90;50.70;;;;;;1619146;72;733;-66
2021/12/20 08:52:25;;;;;;;;;;;23.90;50.70;;;;;;1620516;72;745;-63
2021/12/20 08:54:29;;;;;;;;;;;23.90;50.80;;;;;;1618871;72;787;-66
2021/12/20 08:56:30;;;;;;;;;;;23.90;50.90;;;;;;1615191;72;1181;-67
2021/12/20 08:58:33;;;;;;;;;;;23.90;50.80;;;;;;1621766;72;759;-67
2021/12/20 09:00:35;;;;;;;;;;;23.90;50.80;;;;;;1621502;72;767;-68
2021/12/20 09:02:37;;;;;;;;;;;24.00;50.70;;;;;;1604430;72;736;-67
2021/12/20 09:04:39;;;;;;;;;;;23.90;50.70;;;;;;1624561;72;740;-67
2021/12/20 09:06:42;;;;;;;;;;;24.00;50.70;;;;;;1628554;72;2096;-67
2021/12/20 09:08:46;;;;;;;;;;;23.90;50.60;;;;;;1624020;72;668;-66
2021/12/20 09:10:48;;;;;;;;;;;24.00;50.60;;;;;;1630464;72;1483;-66
2021/12/20 09:12:49;;;;;;;;;;;24.00;50.60;;;;;;1631881;72;744;-67
2021/12/20 09:14:51;;;;;;;;;;;23.90;50.50;;;;;;1625062;72;730;-67
2021/12/20 09:16:54;;;;;;;;;;;23.90;50.50;;;;;;1617584;72;1147;-65
2021/12/20 09:18:55;;;;;;;;;;;23.90;50.40;;;;;;1614480;72;755;-66
2021/12/20 09:20:58;;;;;;;;;;;24.00;50.40;;;;;;1610670;72;809;-65
2021/12/20 09:23:05;;;;;;;;;;;24.00;50.30;;;;;;1618101;72;711;-66
2021/12/20 09:25:07;;;;;;;;;;;24.00;50.20;;;;;;1611095;72;1893;-64
2021/12/20 09:27:09;;;;;;;;;;;24.00;50.20;;;;;;1612288;72;1217;-66
2021/12/20 09:29:11;;;;;;;;;;;24.00;50.20;;;;;;1613742;72;736;-64
2021/12/20 09:31:13;;;;;;;;;;;24.00;50.20;;;;;;1635852;72;763;-64
2021/12/20 09:33:14;;;;;;;;;;;24.00;50.20;;;;;;1623629;72;673;-65
2021/12/20 09:35:16;;;;;;;;;;;24.00;50.20;;;;;;1629454;72;744;-67
2021/12/20 09:37:18;;;;;;;;;;;24.10;50.30;;;;;;1632808;71;1120;-67
2021/12/20 09:39:21;;;;;;;;;;;24.10;50.20;;;;;;1634173;72;783;-64
2021/12/20 09:43:40;;;;;;;;;;;24.00;50.00;;;;;;1641954;72;851;-65
2021/12/20 09:45:43;;;;;;;;;;;24.10;50.20;;;;;;1631922;72;1926;-66
2021/12/20 09:47:45;;;;;;;;;;;24.00;50.00;;;;;;1623744;72;1068;-66
2021/12/20 09:49:47;;;;;;;;;;;24.10;50.10;;;;;;1616355;72;674;-67
2021/12/20 09:51:49;;;;;;;;;;;24.10;50.00;;;;;;1633311;72;747;-67
2021/12/20 09:53:51;;;;;;;;;;;24.00;49.80;;;;;;1637411;72;744;-66
2021/12/20 09:55:53;;;;;;;;;;;24.00;49.70;;;;;;1630899;71;1194;-66
2021/12/20 09:57:54;;;;;;;;;;;24.10;49.90;;;;;;1624042;72;707;-66
2021/12/20 09:59:56;;;;;;;;;;;24.20;49.90;;;;;;1608658;73;765;-66
2021/12/20 10:01:58;;;;;;;;;;;24.10;49.80;;;;;;1622787;72;777;-65
2021/12/20 10:04:00;;;;;;;;;;;24.10;49.70;;;;;;1639563;72;792;-65
2021/12/20 10:06:02;;;;;;;;;;;24.10;49.80;;;;;;1625403;72;1930;-67
2021/12/20 10:08:19;;;;;;;;;;;24.10;49.80;;;;;;1624738;72;1093;-66
2021/12/20 10:10:36;;;;;;;;;;;24.20;49.70;;;;;;1632320;71;1525;-65
2021/12/20 10:12:40;;;;;;;;;;;24.20;49.70;;;;;;1629822;72;726;-64
2021/12/20 10:14:51;;;;;;;;;;;24.00;49.70;;;;;;1614871;72;1960;-66
2021/12/20 10:16:55;;;;;;;;;;;24.00;49.70;;;;;;1631984;71;1085;-67
2021/12/20 10:18:57;;;;;;;;;;;24.00;49.70;;;;;;1635650;72;1631;-66
2021/12/20 10:21:01;;;;;;;;;;;24.10;49.70;;;;;;1622598;72;796;-68
2021/12/20 10:23:10;;;;;;;;;;;24.10;49.80;;;;;;1627242;72;689;-67
2021/12/20 10:25:28;;;;;;;;;;;24.00;49.60;;;;;;1619706;72;781;-67
2021/12/20 10:27:37;;;;;;;;;;;24.10;49.70;;;;;;1632050;72;1205;-67
2021/12/20 10:29:39;;;;;;;;;;;24.00;49.70;;;;;;1622622;72;781;-67
2021/12/20 10:31:41;;;;;;;;;;;24.00;49.70;;;;;;1617072;72;721;-65
2021/12/20 10:33:46;;;;;;;;;;;24.00;49.70;;;;;;1622942;72;766;-68
2021/12/20 10:35:49;;;;;;;;;;;24.00;49.60;;;;;;1613119;72;1110;-67
2021/12/20 10:37:53;;;;;;;;;;;24.00;49.60;;;;;;1619659;72;727;-68
2021/12/20 10:39:55;;;;;;;;;;;24.00;49.60;;;;;;1608981;72;926;-67
2021/12/20 10:42:04;;;;;;;;;;;24.00;49.60;;;;;;1589677;74;1232;-68
2021/12/20 10:44:03;;;;;;;;;;;24.00;49.60;;;;;;1609805;72;1120;-68
2021/12/20 10:46:09;;;;;;;;;;;24.00;49.60;;;;;;1610049;72;1899;-68
2021/12/20 10:48:11;;;;;;;;;;;24.00;49.60;;;;;;1626565;72;704;-67
2021/12/20 10:50:21;;;;;;;;;;;24.00;49.70;;;;;;1627315;72;706;-67
2021/12/20 10:52:26;;;;;;;;;;;23.90;49.70;;;;;;1630723;72;1027;-67
2021/12/20 10:54:31;;;;;;;;;;;23.90;49.70;;;;;;1613597;72;790;-67
2021/12/20 10:56:35;;;;;;;;;;;23.90;49.70;;;;;;1627185;72;1811;-68
2021/12/20 10:58:38;;;;;;;;;;;23.90;49.70;;;;;;1636546;72;745;-67
2021/12/20 11:00:40;;;;;;;;;;;23.90;49.70;;;;;;1616275;72;756;-65
2021/12/20 11:03:24;;;;;;;;;;;23.90;49.70;;;;;;1632458;72;766;-67
2021/12/20 11:05:20;;;;;;;;;;;23.90;49.70;;;;;;1627249;72;1478;-63
2021/12/20 11:09:26;;;;;;;;;;;23.90;49.70;;;;;;1632224;72;869;-66
2021/12/20 11:11:28;;;;;;;;;;;23.90;49.70;;;;;;1627869;72;711;-67
2021/12/20 11:13:32;;;;;;;;;;;23.90;49.70;;;;;;1616763;72;737;-68
2021/12/20 11:15:34;;;;;;;;;;;23.90;49.70;;;;;;1631615;72;1874;-67
2021/12/20 11:17:36;;;;;;;;;;;23.90;49.60;;;;;;1635610;71;1132;-68
2021/12/20 11:19:38;;;;;;;;;;;23.90;49.60;;;;;;1625553;72;757;-67
2021/12/20 11:21:47;;;;;;;;;;;23.90;49.50;;;;;;1601970;72;790;-66
2021/12/20 11:23:49;;;;;;;;;;;23.90;49.50;;;;;;1620617;72;762;-66
2021/12/20 11:25:51;;;;;;;;;;;23.90;49.60;;;;;;1606133;71;1931;-68
2021/12/20 11:27:53;;;;;;;;;;;23.90;49.50;;;;;;1617434;72;799;-66
2021/12/20 11:29:55;;;;;;;;;;;23.90;49.50;;;;;;1613345;72;768;-67
2021/12/20 11:31:57;;;;;;;;;;;23.90;49.40;;;;;;1610821;72;716;-67
2021/12/20 11:34:02;;;;;;;;;;;23.90;49.40;;;;;;1614146;72;718;-67
2021/12/20 11:36:03;;;;;;;;;;;23.90;49.40;;;;;;1622332;72;1127;-67
2021/12/20 11:38:06;;;;;;;;;;;23.90;49.40;;;;;;1614353;72;903;-66
2021/12/20 11:40:08;;;;;;;;;;;23.90;49.40;;;;;;1609492;72;735;-68
2021/12/20 11:42:12;;;;;;;;;;;23.90;49.40;;;;;;1630691;72;723;-67
2021/12/20 11:44:15;;;;;;;;;;;23.90;49.30;;;;;;1633376;72;822;-67
2021/12/20 11:46:17;;;;;;;;;;;23.90;49.30;;;;;;1621303;73;1945;-68
2021/12/20 11:48:19;;;;;;;;;;;23.90;49.40;;;;;;1624027;72;750;-67
2021/12/20 11:50:22;;;;;;;;;;;23.90;49.40;;;;;;1634097;72;727;-67
2021/12/20 11:52:24;;;;;;;;;;;23.80;49.20;;;;;;1633745;72;769;-67
2021/12/20 11:54:35;;;;;;;;;;;23.90;49.30;;;;;;1607006;72;671;-67
2021/12/20 11:56:37;;;;;;;;;;;23.90;49.20;;;;;;1622623;71;1160;-67
2021/12/20 11:58:41;;;;;;;;;;;23.80;49.10;;;;;;1643606;72;808;-67
2021/12/20 12:00:44;;;;;;;;;;;23.90;49.20;;;;;;1615388;72;1111;-68
2021/12/20 12:02:46;;;;;;;;;;;23.80;49.10;;;;;;1606178;72;1905;-67
2021/12/20 12:05:08;;;;;;;;;;;23.90;49.20;;;;;;1615672;72;858;-65
2021/12/20 12:07:22;;;;;;;;;;;23.90;49.20;;;;;;1595167;73;1935;-65
2021/12/20 12:09:24;;;;;;;;;;;24.00;49.10;;;;;;1607394;73;694;-65
2021/12/20 12:11:27;;;;;;;;;;;24.00;49.00;;;;;;1607365;73;745;-66
2021/12/20 12:13:35;;;;;;;;;;;24.00;49.00;;;;;;1607467;73;718;-65
2021/12/20 12:15:43;;;;;;;;;;;24.00;49.00;;;;;;1607265;73;1604;-66
2021/12/20 12:17:50;;;;;;;;;;;24.10;49.10;;;;;;1627994;72;1677;-66
2021/12/20 12:19:52;;;;;;;;;;;24.10;48.90;;;;;;1606056;73;1882;-65
2021/12/20 12:21:54;;;;;;;;;;;24.20;49.00;;;;;;1607622;73;752;-66
2021/12/20 12:23:56;;;;;;;;;;;24.10;49.00;;;;;;1607369;73;742;-66
2021/12/20 12:26:00;;;;;;;;;;;24.10;49.00;;;;;;1607468;73;1978;-66